Time;durP1;ratioP1;P1;durP2;ratioP2;P2;SDS_P1;SDS_P2;PMS_P1;PMS_P2;Temp;Humidity;BMP_temperature;BMP_pressure;BME280_temperature;BME280_humidity;BME280_pressure;Samples;Min_cycle;Max_cycle;Signal;HPM_P1;HPM_P2
2023/08/03 00:00:08;;;;;;;4.85;1.33;;;;;;;;;;5024258;28;20814;-56
2023/08/03 00:02:36;;;;;;;7.03;1.70;;;;;;;;;;5023954;28;20421;-56
2023/08/03 00:05:03;;;;;;;5.45;1.45;;;;;;;;;;5027980;28;20455;-56
2023/08/03 00:07:30;;;;;;;3.97;1.25;;;;;;;;;;5026504;28;20872;-57
2023/08/03 00:09:58;;;;;;;3.33;1.53;;;;;;;;;;5032377;28;20472;-55
2023/08/03 00:12:26;;;;;;;5.10;1.80;;;;;;;;;;5026698;28;20434;-56
2023/08/03 00:14:53;;;;;;;4.50;1.67;;;;;;;;;;5027852;28;20430;-56
2023/08/03 00:17:20;;;;;;;4.13;1.70;;;;;;;;;;5023477;28;20438;-57
2023/08/03 00:19:47;;;;;;;4.57;1.92;;;;;;;;;;5025420;28;20476;-55
2023/08/03 00:22:14;;;;;;;3.58;1.55;;;;;;;;;;5024575;28;20896;-57
2023/08/03 00:24:41;;;;;;;3.92;1.60;;;;;;;;;;5026598;28;20415;-56
2023/08/03 00:27:10;;;;;;;4.25;1.50;;;;;;;;;;5024529;28;20477;-57
2023/08/03 00:29:37;;;;;;;3.88;1.70;;;;;;;;;;5025859;28;20404;-57
2023/08/03 00:32:05;;;;;;;2.92;1.40;;;;;;;;;;5024293;28;20442;-55
2023/08/03 00:34:32;;;;;;;4.07;1.45;;;;;;;;;;5027253;28;20438;-54
2023/08/03 00:36:59;;;;;;;4.00;1.40;;;;;;;;;;5031456;28;20535;-57
2023/08/03 00:39:26;;;;;;;3.53;1.52;;;;;;;;;;5027861;28;20474;-57
2023/08/03 00:41:53;;;;;;;3.35;1.50;;;;;;;;;;5026663;28;20461;-55
2023/08/03 00:44:21;;;;;;;4.30;1.40;;;;;;;;;;5025570;28;20417;-57
2023/08/03 00:46:49;;;;;;;3.63;1.23;;;;;;;;;;5021600;28;20419;-53
2023/08/03 00:49:16;;;;;;;2.78;1.33;;;;;;;;;;5022815;28;20415;-55
2023/08/03 00:51:43;;;;;;;2.97;1.50;;;;;;;;;;5025349;28;20488;-57
2023/08/03 00:54:10;;;;;;;3.53;1.58;;;;;;;;;;5022865;28;20975;-57
2023/08/03 00:56:37;;;;;;;2.40;1.40;;;;;;;;;;5024826;28;20471;-55
2023/08/03 00:59:04;;;;;;;2.95;1.40;;;;;;;;;;5023679;28;20979;-57
2023/08/03 01:01:32;;;;;;;4.22;1.50;;;;;;;;;;5027728;28;20840;-57
2023/08/03 01:03:59;;;;;;;2.50;1.20;;;;;;;;;;5027111;28;20419;-55
2023/08/03 01:06:26;;;;;;;3.97;1.23;;;;;;;;;;5028717;28;20602;-56
2023/08/03 01:08:54;;;;;;;4.03;1.70;;;;;;;;;;5027052;28;20419;-57
2023/08/03 01:11:21;;;;;;;4.50;1.40;;;;;;;;;;5026771;28;20457;-56
2023/08/03 01:13:48;;;;;;;2.97;1.20;;;;;;;;;;5025260;28;20825;-56
2023/08/03 01:16:16;;;;;;;3.72;1.20;;;;;;;;;;5024260;28;20442;-56
2023/08/03 01:18:44;;;;;;;2.72;1.10;;;;;;;;;;5023968;28;20497;-56
2023/08/03 01:21:13;;;;;;;3.55;1.27;;;;;;;;;;5024774;28;20427;-56
2023/08/03 01:23:41;;;;;;;3.08;1.20;;;;;;;;;;5027000;28;20427;-57
2023/08/03 01:26:08;;;;;;;2.50;1.20;;;;;;;;;;5027745;28;20447;-57
2023/08/03 01:28:35;;;;;;;3.22;1.30;;;;;;;;;;5022526;28;20428;-57
2023/08/03 01:31:02;;;;;;;3.33;1.30;;;;;;;;;;5027754;28;20502;-55
2023/08/03 01:33:30;;;;;;;2.15;1.27;;;;;;;;;;5021604;28;20904;-56
2023/08/03 01:35:57;;;;;;;3.50;1.40;;;;;;;;;;5027439;28;20431;-57
2023/08/03 01:38:23;;;;;;;3.15;1.40;;;;;;;;;;5026966;28;20429;-57
2023/08/03 01:40:53;;;;;;;5.20;1.77;;;;;;;;;;5029755;28;20423;-57
2023/08/03 01:43:21;;;;;;;3.65;1.60;;;;;;;;;;5020322;28;20417;-58
2023/08/03 01:45:48;;;;;;;3.15;1.42;;;;;;;;;;5027112;28;20706;-58
2023/08/03 01:48:15;;;;;;;4.27;1.50;;;;;;;;;;5027116;28;20480;-56
2023/08/03 01:50:42;;;;;;;3.00;1.30;;;;;;;;;;5025737;28;20853;-57
2023/08/03 01:53:09;;;;;;;4.63;1.80;;;;;;;;;;5023442;28;20469;-56
2023/08/03 01:55:36;;;;;;;6.22;1.50;;;;;;;;;;5025316;28;20463;-55
2023/08/03 01:58:06;;;;;;;4.53;2.00;;;;;;;;;;5023219;28;20451;-57
2023/08/03 02:00:33;;;;;;;5.25;2.00;;;;;;;;;;5024687;28;20479;-57
2023/08/03 02:03:00;;;;;;;3.25;1.73;;;;;;;;;;5022619;28;20419;-56
2023/08/03 02:05:27;;;;;;;4.38;2.15;;;;;;;;;;5024318;28;20439;-57
2023/08/03 02:07:54;;;;;;;4.85;1.90;;;;;;;;;;5029457;28;20855;-57
2023/08/03 02:10:22;;;;;;;4.33;2.00;;;;;;;;;;5026588;28;20519;-57
2023/08/03 02:12:49;;;;;;;5.03;2.15;;;;;;;;;;5022110;28;20881;-56
2023/08/03 02:15:17;;;;;;;6.38;2.00;;;;;;;;;;5024078;28;20431;-57
2023/08/03 02:17:45;;;;;;;6.93;2.10;;;;;;;;;;5022279;28;20522;-58
2023/08/03 02:20:13;;;;;;;6.53;2.00;;;;;;;;;;5024321;28;20425;-54
2023/08/03 02:22:40;;;;;;;5.03;2.00;;;;;;;;;;5025010;28;20555;-55
2023/08/03 02:25:07;;;;;;;7.05;2.10;;;;;;;;;;5026094;28;20410;-58
2023/08/03 02:27:34;;;;;;;5.40;2.03;;;;;;;;;;5023304;28;20417;-58
2023/08/03 02:30:01;;;;;;;6.40;2.30;;;;;;;;;;5024916;28;20414;-58
2023/08/03 02:32:30;;;;;;;5.63;1.88;;;;;;;;;;5025191;28;20971;-57
2023/08/03 02:34:57;;;;;;;6.07;1.92;;;;;;;;;;5026799;28;20442;-58
2023/08/03 02:37:24;;;;;;;5.60;2.15;;;;;;;;;;5029074;28;20426;-56
2023/08/03 02:39:51;;;;;;;4.23;2.07;;;;;;;;;;5028006;28;20573;-57
2023/08/03 02:42:18;;;;;;;4.65;1.98;;;;;;;;;;5021935;28;20496;-56
2023/08/03 02:44:45;;;;;;;5.05;2.20;;;;;;;;;;5024090;28;20419;-55
2023/08/03 02:47:12;;;;;;;5.00;2.08;;;;;;;;;;5025204;28;21189;-55
2023/08/03 02:49:40;;;;;;;4.60;1.90;;;;;;;;;;5024359;28;20431;-56
2023/08/03 02:52:07;;;;;;;5.43;2.10;;;;;;;;;;5024964;28;20469;-55
2023/08/03 02:54:34;;;;;;;4.03;2.10;;;;;;;;;;5021634;28;20756;-55
2023/08/03 02:57:01;;;;;;;4.25;2.15;;;;;;;;;;5024821;28;20445;-55
2023/08/03 02:59:28;;;;;;;7.33;2.37;;;;;;;;;;5024503;28;20513;-56
2023/08/03 03:01:55;;;;;;;5.18;2.10;;;;;;;;;;5024757;28;20473;-56
2023/08/03 03:04:22;;;;;;;4.78;2.10;;;;;;;;;;5022770;28;20420;-57
2023/08/03 03:06:51;;;;;;;6.75;2.35;;;;;;;;;;5024664;28;20467;-57
2023/08/03 03:09:18;;;;;;;5.18;2.13;;;;;;;;;;5025357;28;20423;-56
2023/08/03 03:11:45;;;;;;;8.63;2.40;;;;;;;;;;5028012;28;20419;-58
2023/08/03 03:14:12;;;;;;;6.93;2.30;;;;;;;;;;5023176;28;20415;-56
2023/08/03 03:16:38;;;;;;;7.03;2.25;;;;;;;;;;5028725;28;20432;-55
2023/08/03 03:19:05;;;;;;;7.95;2.38;;;;;;;;;;5027738;28;20419;-55
2023/08/03 03:21:32;;;;;;;7.65;2.80;;;;;;;;;;5027971;28;20490;-54
2023/08/03 03:24:01;;;;;;;5.00;2.00;;;;;;;;;;5025940;28;20438;-55
2023/08/03 03:26:28;;;;;;;5.55;2.10;;;;;;;;;;5027602;28;20476;-57
2023/08/03 03:28:55;;;;;;;3.97;1.95;;;;;;;;;;5026929;28;20917;-57
2023/08/03 03:31:22;;;;;;;5.75;2.30;;;;;;;;;;5026581;28;20496;-56
2023/08/03 03:33:49;;;;;;;4.63;2.10;;;;;;;;;;5027041;28;20422;-56
2023/08/03 03:36:16;;;;;;;6.80;2.20;;;;;;;;;;5027447;28;20484;-57
2023/08/03 03:38:43;;;;;;;4.35;2.03;;;;;;;;;;5030239;28;20774;-55
2023/08/03 03:41:11;;;;;;;4.53;1.88;;;;;;;;;;5030898;28;20415;-55
2023/08/03 03:43:38;;;;;;;3.88;1.77;;;;;;;;;;5027040;28;20496;-57
2023/08/03 03:46:05;;;;;;;5.18;2.20;;;;;;;;;;5029352;28;20754;-58
2023/08/03 03:48:32;;;;;;;4.90;1.80;;;;;;;;;;5022829;28;20474;-56
2023/08/03 03:50:59;;;;;;;4.20;1.80;;;;;;;;;;5029044;28;20429;-57
2023/08/03 03:53:26;;;;;;;4.20;1.73;;;;;;;;;;5027341;28;20479;-55
2023/08/03 03:55:53;;;;;;;3.67;1.70;;;;;;;;;;5028904;28;20824;-57
2023/08/03 03:58:21;;;;;;;4.80;1.83;;;;;;;;;;5022061;28;20423;-57
2023/08/03 04:00:48;;;;;;;5.32;1.95;;;;;;;;;;5028404;28;20419;-57
2023/08/03 04:03:15;;;;;;;5.25;1.80;;;;;;;;;;5026276;28;20477;-57
2023/08/03 04:05:42;;;;;;;3.42;1.70;;;;;;;;;;5027283;28;20413;-56
2023/08/03 04:08:10;;;;;;;2.90;1.73;;;;;;;;;;5034674;28;20996;-56
2023/08/03 04:10:37;;;;;;;5.07;1.83;;;;;;;;;;5029536;28;20486;-56
2023/08/03 04:13:04;;;;;;;4.20;1.92;;;;;;;;;;5024934;28;20415;-56
2023/08/03 04:15:32;;;;;;;5.93;1.98;;;;;;;;;;5024956;28;20433;-57
2023/08/03 04:17:59;;;;;;;6.00;1.90;;;;;;;;;;5021422;28;20431;-55
2023/08/03 04:20:26;;;;;;;3.22;1.70;;;;;;;;;;5025725;28;20428;-57
2023/08/03 04:22:53;;;;;;;4.07;1.88;;;;;;;;;;5027436;28;20491;-56
2023/08/03 04:25:20;;;;;;;5.05;1.60;;;;;;;;;;5028435;28;20411;-55
2023/08/03 04:27:47;;;;;;;4.18;1.42;;;;;;;;;;5030131;28;20542;-55
2023/08/03 04:30:14;;;;;;;3.10;1.33;;;;;;;;;;5025878;28;20505;-57
2023/08/03 04:32:43;;;;;;;2.90;1.33;;;;;;;;;;5025643;28;20911;-55
2023/08/03 04:35:10;;;;;;;4.72;1.55;;;;;;;;;;5025991;28;20468;-56
2023/08/03 04:37:37;;;;;;;4.50;1.40;;;;;;;;;;5034820;28;20418;-56
2023/08/03 04:40:04;;;;;;;4.25;1.40;;;;;;;;;;5030422;28;20501;-55
2023/08/03 04:42:32;;;;;;;4.78;1.40;;;;;;;;;;5023761;28;20481;-57
2023/08/03 04:44:59;;;;;;;4.07;1.43;;;;;;;;;;5026402;28;20415;-57
2023/08/03 04:47:26;;;;;;;4.82;1.45;;;;;;;;;;5019774;28;20419;-58
2023/08/03 04:49:54;;;;;;;3.83;1.30;;;;;;;;;;5024728;28;20832;-55
2023/08/03 04:52:21;;;;;;;3.00;1.30;;;;;;;;;;5025914;28;20569;-57
2023/08/03 04:54:48;;;;;;;3.75;1.25;;;;;;;;;;5025226;28;20912;-57
2023/08/03 04:57:15;;;;;;;3.05;1.30;;;;;;;;;;5025089;28;20512;-57
2023/08/03 04:59:42;;;;;;;2.75;1.30;;;;;;;;;;5032950;28;20448;-56
2023/08/03 05:02:09;;;;;;;3.40;1.30;;;;;;;;;;5036265;28;20850;-57
2023/08/03 05:04:36;;;;;;;3.88;1.50;;;;;;;;;;5033831;28;20801;-57
2023/08/03 05:07:05;;;;;;;3.67;1.50;;;;;;;;;;5036142;28;20475;-55
2023/08/03 05:09:32;;;;;;;3.97;1.43;;;;;;;;;;5030644;28;20418;-58
2023/08/03 05:11:59;;;;;;;2.97;1.17;;;;;;;;;;5025493;28;20433;-56
2023/08/03 05:14:26;;;;;;;3.55;1.23;;;;;;;;;;5022190;28;20439;-58
2023/08/03 05:16:53;;;;;;;3.42;1.40;;;;;;;;;;5025723;28;20461;-58
2023/08/03 05:19:20;;;;;;;2.42;1.40;;;;;;;;;;5024688;28;20896;-58
2023/08/03 05:21:48;;;;;;;2.97;1.10;;;;;;;;;;5035944;28;20832;-59
2023/08/03 05:24:16;;;;;;;2.67;1.38;;;;;;;;;;5027008;28;20481;-59
2023/08/03 05:26:43;;;;;;;4.53;1.48;;;;;;;;;;5032783;28;20428;-63
2023/08/03 05:29:10;;;;;;;3.60;1.70;;;;;;;;;;5028379;28;20505;-59
2023/08/03 05:31:37;;;;;;;3.78;1.25;;;;;;;;;;5035252;28;20490;-58
2023/08/03 05:34:04;;;;;;;2.97;1.40;;;;;;;;;;5023618;28;20419;-58
2023/08/03 05:36:31;;;;;;;1.80;1.30;;;;;;;;;;5027117;28;20435;-58
2023/08/03 05:38:58;;;;;;;2.60;1.10;;;;;;;;;;5024331;28;20415;-58
2023/08/03 05:41:27;;;;;;;6.68;1.45;;;;;;;;;;5023760;28;20832;-57
2023/08/03 05:43:54;;;;;;;2.00;1.10;;;;;;;;;;5026736;28;20405;-58
2023/08/03 05:46:21;;;;;;;2.42;1.40;;;;;;;;;;5032385;28;20469;-57
2023/08/03 05:48:51;;;;;;;3.70;1.48;;;;;;;;;;5029072;28;20753;-58
2023/08/03 05:51:23;;;;;;;3.67;1.20;;;;;;;;;;5026018;28;20407;-58
2023/08/03 05:53:50;;;;;;;4.13;1.30;;;;;;;;;;5022935;28;20415;-59
2023/08/03 05:56:17;;;;;;;3.17;1.20;;;;;;;;;;5028298;28;20435;-59
2023/08/03 05:58:46;;;;;;;3.28;1.27;;;;;;;;;;5022138;28;21191;-57
2023/08/03 06:01:13;;;;;;;2.20;1.10;;;;;;;;;;5025754;28;20415;-57
2023/08/03 06:03:42;;;;;;;4.22;1.27;;;;;;;;;;5023489;28;20421;-57
2023/08/03 06:06:11;;;;;;;4.30;1.20;;;;;;;;;;5030436;28;20497;-58
2023/08/03 06:08:38;;;;;;;3.13;1.15;;;;;;;;;;5030935;28;20427;-58
2023/08/03 06:11:05;;;;;;;3.92;1.00;;;;;;;;;;5026954;28;20848;-57
2023/08/03 06:13:35;;;;;;;3.58;1.02;;;;;;;;;;5025514;28;20989;-56
2023/08/03 06:16:05;;;;;;;3.67;1.00;;;;;;;;;;5025127;28;20793;-57
2023/08/03 06:18:32;;;;;;;1.77;1.05;;;;;;;;;;5026064;28;20481;-58
2023/08/03 06:20:59;;;;;;;2.22;0.90;;;;;;;;;;5025056;28;20506;-57
2023/08/03 06:23:27;;;;;;;2.83;1.00;;;;;;;;;;5022283;28;20431;-59
2023/08/03 06:25:55;;;;;;;3.13;1.10;;;;;;;;;;5027993;28;20421;-58
2023/08/03 06:28:23;;;;;;;1.70;1.00;;;;;;;;;;5027866;28;20853;-63
2023/08/03 06:30:51;;;;;;;1.95;1.13;;;;;;;;;;5026564;28;20419;-61
2023/08/03 06:33:21;;;;;;;2.78;1.00;;;;;;;;;;5025655;28;20496;-61
2023/08/03 06:35:50;;;;;;;2.22;1.05;;;;;;;;;;5025129;28;20927;-61
2023/08/03 06:38:17;;;;;;;2.30;1.27;;;;;;;;;;5037857;28;20429;-61
2023/08/03 06:40:44;;;;;;;2.92;1.13;;;;;;;;;;5029517;28;20427;-59
2023/08/03 06:43:12;;;;;;;4.65;2.28;;;;;;;;;;5025389;28;20445;-61
2023/08/03 06:45:40;;;;;;;3.38;1.30;;;;;;;;;;5025612;28;20769;-64
2023/08/03 06:48:07;;;;;;;3.25;1.30;;;;;;;;;;5024139;28;20422;-62
2023/08/03 06:50:35;;;;;;;3.97;1.70;;;;;;;;;;5024637;28;20417;-62
2023/08/03 06:53:02;;;;;;;4.57;2.10;;;;;;;;;;5028065;28;20425;-61
2023/08/03 06:55:30;;;;;;;3.15;1.88;;;;;;;;;;5024837;28;20412;-62
2023/08/03 06:57:57;;;;;;;4.00;2.03;;;;;;;;;;5032393;28;20413;-62
2023/08/03 07:00:26;;;;;;;2.85;1.75;;;;;;;;;;5033380;28;20416;-63
2023/08/03 07:02:53;;;;;;;4.17;2.00;;;;;;;;;;5051948;28;20502;-64
2023/08/03 07:05:20;;;;;;;3.25;1.73;;;;;;;;;;5054035;28;20407;-62
2023/08/03 07:07:49;;;;;;;2.43;1.67;;;;;;;;;;5043097;28;20945;-63
2023/08/03 07:10:16;;;;;;;2.80;1.63;;;;;;;;;;5026890;28;20437;-63
2023/08/03 07:12:43;;;;;;;4.40;1.70;;;;;;;;;;5030135;28;20516;-63
2023/08/03 07:15:10;;;;;;;4.30;1.80;;;;;;;;;;5028816;28;20489;-62
2023/08/03 07:17:37;;;;;;;3.63;1.77;;;;;;;;;;5028247;28;20954;-63
2023/08/03 07:20:07;;;;;;;3.90;1.92;;;;;;;;;;5025841;28;20856;-63
2023/08/03 07:22:35;;;;;;;4.22;2.10;;;;;;;;;;5027303;28;20466;-65
2023/08/03 07:25:04;;;;;;;2.80;1.70;;;;;;;;;;5027312;28;20419;-61
2023/08/03 07:27:31;;;;;;;3.55;2.00;;;;;;;;;;5033957;28;20427;-63
2023/08/03 07:29:58;;;;;;;3.58;1.98;;;;;;;;;;5026337;28;20505;-63
2023/08/03 07:32:25;;;;;;;2.22;1.60;;;;;;;;;;5028948;28;20469;-63
2023/08/03 07:34:52;;;;;;;2.20;1.50;;;;;;;;;;5026025;28;20437;-62
2023/08/03 07:37:19;;;;;;;3.30;1.60;;;;;;;;;;5033623;28;20468;-62
2023/08/03 07:39:46;;;;;;;4.53;1.80;;;;;;;;;;5028017;28;20836;-62
2023/08/03 07:42:15;;;;;;;2.42;1.65;;;;;;;;;;5029107;28;20419;-63
2023/08/03 07:44:42;;;;;;;4.20;1.70;;;;;;;;;;5026921;28;20417;-62
2023/08/03 07:47:09;;;;;;;2.28;1.63;;;;;;;;;;5032543;28;20825;-62
2023/08/03 07:49:36;;;;;;;2.83;1.70;;;;;;;;;;5022453;28;20412;-63
2023/08/03 07:52:03;;;;;;;2.88;1.35;;;;;;;;;;5030454;28;20473;-62
2023/08/03 07:54:30;;;;;;;1.77;1.53;;;;;;;;;;5025201;28;20481;-63
2023/08/03 07:56:57;;;;;;;3.92;1.40;;;;;;;;;;5027004;28;20425;-62
2023/08/03 07:59:25;;;;;;;2.53;1.55;;;;;;;;;;5034537;28;20481;-64
2023/08/03 08:01:52;;;;;;;4.38;1.70;;;;;;;;;;5030369;28;20423;-62
2023/08/03 08:04:19;;;;;;;3.03;1.80;;;;;;;;;;5029134;28;20928;-61
2023/08/03 08:06:46;;;;;;;2.95;1.80;;;;;;;;;;5034541;28;20438;-62
2023/08/03 08:09:13;;;;;;;3.17;2.00;;;;;;;;;;5030030;28;20431;-62
2023/08/03 08:11:40;;;;;;;3.40;2.22;;;;;;;;;;5029180;28;20838;-62
2023/08/03 08:14:07;;;;;;;4.43;2.33;;;;;;;;;;5025136;28;20963;-62
2023/08/03 08:16:35;;;;;;;4.10;2.67;;;;;;;;;;5026000;28;20475;-62
2023/08/03 08:19:04;;;;;;;4.57;2.30;;;;;;;;;;5034232;28;20423;-62
2023/08/03 08:21:31;;;;;;;2.47;1.92;;;;;;;;;;5021655;28;20427;-62
2023/08/03 08:23:59;;;;;;;4.63;2.25;;;;;;;;;;5027801;28;20419;-63
2023/08/03 08:26:26;;;;;;;3.40;1.90;;;;;;;;;;5028351;28;20502;-63
2023/08/03 08:28:58;;;;;;;3.85;1.90;;;;;;;;;;5026571;28;20493;-63
2023/08/03 08:31:25;;;;;;;7.65;1.90;;;;;;;;;;5025458;28;20447;-63
2023/08/03 08:33:53;;;;;;;3.83;1.80;;;;;;;;;;5026755;28;20491;-63
2023/08/03 08:36:20;;;;;;;2.40;1.45;;;;;;;;;;5030962;28;20427;-62
2023/08/03 08:38:47;;;;;;;4.82;1.65;;;;;;;;;;5033452;28;20458;-63
2023/08/03 08:41:14;;;;;;;4.15;1.63;;;;;;;;;;5035312;28;20415;-63
2023/08/03 08:43:41;;;;;;;3.25;1.70;;;;;;;;;;5030117;28;20429;-63
2023/08/03 08:46:08;;;;;;;3.15;1.70;;;;;;;;;;5028261;28;20865;-63
2023/08/03 08:48:35;;;;;;;3.20;1.65;;;;;;;;;;5030383;28;20422;-63
2023/08/03 08:51:05;;;;;;;2.20;1.50;;;;;;;;;;5031568;28;20947;-63
2023/08/03 08:53:33;;;;;;;4.47;1.90;;;;;;;;;;5032121;28;21127;-63
2023/08/03 08:56:00;;;;;;;3.55;1.90;;;;;;;;;;5026328;28;20480;-63
2023/08/03 08:58:28;;;;;;;3.67;1.80;;;;;;;;;;5030535;28;20458;-62
2023/08/03 09:01:03;;;;;;;3.90;1.80;;;;;;;;;;5031015;28;20451;-63
2023/08/03 09:03:45;;;;;;;4.40;1.90;;;;;;;;;;5030549;28;21030;-63
2023/08/03 09:06:14;;;;;;;5.38;2.08;;;;;;;;;;5032350;28;20409;-63
2023/08/03 09:08:59;;;;;;;3.00;1.50;;;;;;;;;;5044183;28;20865;-63
2023/08/03 09:11:39;;;;;;;3.53;1.77;;;;;;;;;;5030011;28;20422;-60
2023/08/03 09:14:07;;;;;;;4.17;1.53;;;;;;;;;;5028239;28;20415;-64
2023/08/03 09:16:34;;;;;;;4.35;1.70;;;;;;;;;;5028058;28;20450;-59
2023/08/03 09:19:01;;;;;;;3.53;1.60;;;;;;;;;;5026399;28;20426;-58
2023/08/03 09:21:30;;;;;;;3.85;1.33;;;;;;;;;;5023185;28;20502;-59
2023/08/03 09:23:59;;;;;;;2.90;1.20;;;;;;;;;;5025895;28;20794;-59
2023/08/03 09:26:26;;;;;;;3.45;1.40;;;;;;;;;;5022663;28;20490;-60
2023/08/03 09:28:53;;;;;;;4.28;1.30;;;;;;;;;;5025514;28;20619;-60
2023/08/03 09:31:24;;;;;;;3.73;1.50;;;;;;;;;;5022417;28;20488;-60
2023/08/03 09:33:58;;;;;;;3.80;1.70;;;;;;;;;;5023450;28;20503;-60
2023/08/03 09:36:25;;;;;;;3.50;1.38;;;;;;;;;;5026794;28;20524;-60
2023/08/03 09:38:54;;;;;;;3.42;1.25;;;;;;;;;;5029669;28;20479;-58
2023/08/03 09:41:35;;;;;;;2.40;1.23;;;;;;;;;;5025209;28;20418;-59
2023/08/03 09:44:03;;;;;;;3.08;1.40;;;;;;;;;;5024899;28;20449;-60
2023/08/03 09:46:30;;;;;;;2.22;1.23;;;;;;;;;;5032719;28;20450;-59
2023/08/03 09:48:57;;;;;;;5.10;1.40;;;;;;;;;;5022160;28;20507;-57
2023/08/03 09:51:26;;;;;;;3.47;1.35;;;;;;;;;;5024243;28;20505;-56
2023/08/03 09:53:56;;;;;;;4.78;1.70;;;;;;;;;;5022350;28;20412;-58
2023/08/03 09:56:31;;;;;;;3.72;1.35;;;;;;;;;;5026304;28;20485;-58
2023/08/03 09:58:59;;;;;;;4.20;1.67;;;;;;;;;;5027792;28;20443;-59
2023/08/03 10:01:28;;;;;;;3.25;1.50;;;;;;;;;;5026371;28;20479;-59
2023/08/03 10:03:58;;;;;;;3.50;1.67;;;;;;;;;;5028786;28;20569;-62
2023/08/03 10:06:27;;;;;;;3.63;1.55;;;;;;;;;;5031201;28;20429;-62
2023/08/03 10:08:57;;;;;;;2.70;1.50;;;;;;;;;;5031780;28;20416;-63
2023/08/03 10:11:24;;;;;;;2.70;1.40;;;;;;;;;;5027953;28;20790;-62
2023/08/03 10:13:52;;;;;;;3.25;1.70;;;;;;;;;;5021125;28;20894;-62
2023/08/03 10:16:20;;;;;;;3.90;1.63;;;;;;;;;;5025387;28;20572;-62
2023/08/03 10:18:47;;;;;;;4.40;1.92;;;;;;;;;;5023362;28;20422;-60
2023/08/03 10:21:14;;;;;;;3.60;1.70;;;;;;;;;;5025797;28;20476;-59
2023/08/03 10:24:01;;;;;;;3.85;1.83;;;;;;;;;;5028660;28;20759;-59
2023/08/03 10:26:30;;;;;;;3.50;1.50;;;;;;;;;;5029258;28;20417;-61
2023/08/03 10:28:57;;;;;;;4.13;1.58;;;;;;;;;;5027772;28;20423;-60
2023/08/03 10:31:24;;;;;;;4.30;1.77;;;;;;;;;;5028817;28;20841;-58
2023/08/03 10:34:17;;;;;;;3.60;1.57;;;;;;;;;;5029282;28;20412;-62
2023/08/03 10:36:49;;;;;;;3.42;1.60;;;;;;;;;;5048742;28;20434;-63
2023/08/03 10:39:16;;;;;;;3.15;1.60;;;;;;;;;;5049491;28;20415;-64
2023/08/03 10:41:49;;;;;;;3.58;2.03;;;;;;;;;;5034119;28;20530;-62
2023/08/03 10:44:26;;;;;;;3.95;1.90;;;;;;;;;;5037225;28;20445;-59
2023/08/03 10:46:53;;;;;;;2.92;1.88;;;;;;;;;;5027063;28;20416;-60
2023/08/03 10:49:39;;;;;;;3.20;1.63;;;;;;;;;;5029186;28;20759;-57
2023/08/03 10:52:16;;;;;;;4.83;1.93;;;;;;;;;;5025760;28;20414;-60
2023/08/03 10:54:43;;;;;;;3.50;1.90;;;;;;;;;;5028685;28;20419;-59
2023/08/03 10:57:12;;;;;;;3.70;1.65;;;;;;;;;;5028719;28;20460;-58
2023/08/03 10:59:39;;;;;;;3.03;1.65;;;;;;;;;;5032562;28;20899;-60
2023/08/03 11:02:11;;;;;;;4.20;2.10;;;;;;;;;;5025926;28;20406;-60
2023/08/03 11:04:39;;;;;;;4.60;2.00;;;;;;;;;;5030674;28;20416;-59
2023/08/03 11:07:06;;;;;;;5.88;2.00;;;;;;;;;;5032538;28;20425;-58
2023/08/03 11:09:34;;;;;;;3.42;1.65;;;;;;;;;;5030280;28;20476;-58
2023/08/03 11:12:01;;;;;;;3.25;1.80;;;;;;;;;;5024871;28;20959;-58
2023/08/03 11:14:29;;;;;;;4.13;1.80;;;;;;;;;;5027944;28;20411;-55
2023/08/03 11:16:57;;;;;;;4.82;2.03;;;;;;;;;;5027268;28;20418;-58
2023/08/03 11:19:24;;;;;;;4.32;1.67;;;;;;;;;;5021752;28;21134;-59
2023/08/03 11:21:51;;;;;;;5.45;2.00;;;;;;;;;;5028459;28;20424;-59
2023/08/03 11:24:18;;;;;;;3.70;1.92;;;;;;;;;;5026169;28;20430;-59
2023/08/03 11:26:45;;;;;;;4.32;2.20;;;;;;;;;;5016780;28;20420;-61
2023/08/03 11:29:12;;;;;;;4.20;1.90;;;;;;;;;;5024599;28;20485;-60
2023/08/03 11:31:40;;;;;;;6.13;2.15;;;;;;;;;;5032649;28;20423;-65
2023/08/03 11:34:07;;;;;;;4.15;2.00;;;;;;;;;;5025193;28;20423;-65
2023/08/03 11:36:34;;;;;;;4.18;1.80;;;;;;;;;;5026873;28;20413;-64
2023/08/03 11:39:01;;;;;;;5.68;2.17;;;;;;;;;;5028390;28;20436;-64
2023/08/03 11:41:28;;;;;;;5.28;2.08;;;;;;;;;;5027271;28;20484;-65
2023/08/03 11:43:55;;;;;;;4.20;1.90;;;;;;;;;;5018625;28;20947;-66
2023/08/03 11:46:26;;;;;;;4.93;1.80;;;;;;;;;;5029736;28;20426;-64
2023/08/03 11:48:58;;;;;;;4.20;2.05;;;;;;;;;;5022049;28;20449;-66
2023/08/03 11:51:31;;;;;;;5.68;2.20;;;;;;;;;;5031969;28;20410;-64
2023/08/03 11:54:01;;;;;;;5.38;2.25;;;;;;;;;;5026699;28;20426;-63
2023/08/03 11:56:28;;;;;;;4.22;2.30;;;;;;;;;;5025326;28;20419;-64
2023/08/03 11:58:56;;;;;;;8.00;2.47;;;;;;;;;;5023598;28;20489;-66
2023/08/03 12:01:26;;;;;;;5.55;2.33;;;;;;;;;;5025357;28;20897;-65
2023/08/03 12:04:05;;;;;;;4.30;1.80;;;;;;;;;;5028568;28;20492;-66
2023/08/03 12:06:45;;;;;;;4.88;1.90;;;;;;;;;;5032142;28;20458;-66
2023/08/03 12:09:18;;;;;;;5.68;1.80;;;;;;;;;;5023970;28;20405;-65
2023/08/03 12:11:45;;;;;;;4.93;1.77;;;;;;;;;;5025305;28;20907;-65
2023/08/03 12:14:12;;;;;;;4.68;1.90;;;;;;;;;;5023722;28;20426;-65
2023/08/03 12:16:39;;;;;;;3.27;1.70;;;;;;;;;;4965586;28;1736526;-64
2023/08/03 12:19:08;;;;;;;4.38;1.90;;;;;;;;;;5023828;28;20940;-63
2023/08/03 12:21:36;;;;;;;3.55;1.80;;;;;;;;;;5026413;28;20407;-63
2023/08/03 12:24:03;;;;;;;4.60;1.85;;;;;;;;;;5027344;28;20431;-64
2023/08/03 12:26:30;;;;;;;3.90;1.80;;;;;;;;;;5030074;28;21000;-64
2023/08/03 12:28:57;;;;;;;2.30;1.42;;;;;;;;;;5022770;28;20415;-64
2023/08/03 12:31:24;;;;;;;4.05;1.60;;;;;;;;;;5026739;28;20422;-64
2023/08/03 12:33:51;;;;;;;2.42;1.60;;;;;;;;;;5024903;28;20415;-63
2023/08/03 12:36:19;;;;;;;5.28;2.05;;;;;;;;;;5028668;28;20812;-62
2023/08/03 12:38:46;;;;;;;3.28;2.15;;;;;;;;;;5030612;28;20840;-64
2023/08/03 12:41:13;;;;;;;3.35;1.80;;;;;;;;;;5028344;28;20418;-63
2023/08/03 12:43:40;;;;;;;4.07;2.58;;;;;;;;;;5022195;28;20488;-63
2023/08/03 12:46:08;;;;;;;3.27;2.00;;;;;;;;;;5019471;28;20419;-62
2023/08/03 12:48:35;;;;;;;3.25;1.73;;;;;;;;;;5018184;28;21111;-63
2023/08/03 12:51:02;;;;;;;3.88;1.83;;;;;;;;;;5019093;28;20413;-63
2023/08/03 12:53:31;;;;;;;3.53;1.80;;;;;;;;;;5020610;28;20472;-62
2023/08/03 12:55:58;;;;;;;3.00;1.50;;;;;;;;;;5023856;28;20448;-62
2023/08/03 12:58:25;;;;;;;2.17;1.30;;;;;;;;;;5030055;28;20427;-61
2023/08/03 13:00:55;;;;;;;5.60;1.75;;;;;;;;;;5021968;28;20425;-62
2023/08/03 13:03:22;;;;;;;4.10;1.70;;;;;;;;;;5022382;28;20905;-63
2023/08/03 13:05:49;;;;;;;4.03;1.48;;;;;;;;;;5036766;28;20411;-64
2023/08/03 13:08:17;;;;;;;3.15;1.50;;;;;;;;;;5035334;28;20493;-63
2023/08/03 13:10:46;;;;;;;3.85;1.52;;;;;;;;;;5033160;28;20512;-58
2023/08/03 13:13:17;;;;;;;3.20;1.70;;;;;;;;;;5031598;28;20417;-57
2023/08/03 13:15:44;;;;;;;4.95;1.50;;;;;;;;;;5036689;28;20414;-57
2023/08/03 13:18:11;;;;;;;3.17;1.80;;;;;;;;;;5033689;28;20796;-58
2023/08/03 13:20:38;;;;;;;2.53;1.60;;;;;;;;;;5032213;28;21003;-58
2023/08/03 13:23:05;;;;;;;3.33;1.75;;;;;;;;;;5036508;28;20417;-58
2023/08/03 13:25:32;;;;;;;3.30;1.83;;;;;;;;;;5031079;28;20974;-59
2023/08/03 13:28:00;;;;;;;2.47;1.45;;;;;;;;;;5033492;28;20424;-61
2023/08/03 13:30:27;;;;;;;2.80;1.63;;;;;;;;;;5021043;28;20520;-60
2023/08/03 13:32:54;;;;;;;4.78;1.70;;;;;;;;;;5030347;28;20533;-61
2023/08/03 13:35:21;;;;;;;3.30;1.50;;;;;;;;;;5022248;28;21011;-60
2023/08/03 13:37:49;;;;;;;3.67;1.60;;;;;;;;;;5031118;28;20481;-61
2023/08/03 13:40:16;;;;;;;3.33;1.80;;;;;;;;;;5031662;28;20770;-60
2023/08/03 13:42:43;;;;;;;3.13;1.30;;;;;;;;;;5023129;28;20428;-60
2023/08/03 13:45:12;;;;;;;4.07;1.42;;;;;;;;;;5025232;28;20422;-61
2023/08/03 13:47:39;;;;;;;2.58;1.63;;;;;;;;;;5018527;28;20473;-60
2023/08/03 13:50:06;;;;;;;3.70;1.60;;;;;;;;;;5026589;28;20471;-61
2023/08/03 13:52:33;;;;;;;3.25;1.45;;;;;;;;;;5036266;28;20423;-60
2023/08/03 13:55:00;;;;;;;3.60;1.83;;;;;;;;;;5019766;28;20495;-61
2023/08/03 13:57:27;;;;;;;4.32;1.85;;;;;;;;;;5023354;28;20417;-60
2023/08/03 13:59:54;;;;;;;2.40;1.60;;;;;;;;;;5020638;28;20792;-60
2023/08/03 14:02:23;;;;;;;2.30;1.90;;;;;;;;;;5028239;28;20410;-61
2023/08/03 14:04:50;;;;;;;3.70;1.77;;;;;;;;;;5021605;28;20412;-60
2023/08/03 14:07:17;;;;;;;3.50;1.50;;;;;;;;;;5033918;28;20418;-60
2023/08/03 14:09:46;;;;;;;3.33;1.60;;;;;;;;;;5026936;28;20504;-59
2023/08/03 14:12:14;;;;;;;2.50;1.80;;;;;;;;;;5035562;28;20529;-58
2023/08/03 14:14:41;;;;;;;8.57;6.90;;;;;;;;;;5032474;28;21107;-58
2023/08/03 14:17:09;;;;;;;2.35;1.90;;;;;;;;;;5022916;28;20418;-58
2023/08/03 14:19:37;;;;;;;3.00;1.73;;;;;;;;;;5024520;28;20435;-58
2023/08/03 14:22:05;;;;;;;2.88;1.80;;;;;;;;;;5027168;28;20502;-57
2023/08/03 14:24:32;;;;;;;2.27;1.90;;;;;;;;;;5022557;28;20494;-58
2023/08/03 14:26:59;;;;;;;4.15;1.80;;;;;;;;;;5019208;28;20483;-58
2023/08/03 14:29:26;;;;;;;3.10;1.90;;;;;;;;;;5022070;28;20492;-57
2023/08/03 14:31:53;;;;;;;3.20;1.67;;;;;;;;;;5021013;28;20432;-59
2023/08/03 14:34:20;;;;;;;4.43;2.00;;;;;;;;;;5025321;28;20415;-59
2023/08/03 14:36:48;;;;;;;3.40;1.98;;;;;;;;;;5016325;28;20419;-58
2023/08/03 14:39:15;;;;;;;4.57;2.05;;;;;;;;;;5017501;28;20430;-58
2023/08/03 14:41:42;;;;;;;3.08;1.90;;;;;;;;;;5017562;28;20491;-60
2023/08/03 14:44:09;;;;;;;4.45;2.15;;;;;;;;;;5024191;28;20437;-59
2023/08/03 14:46:36;;;;;;;5.43;2.35;;;;;;;;;;5020616;28;20473;-60